createdAt,value
2023-11-01T00:10:11.866Z,78.65
2023-11-01T00:25:12.603Z,78.61
2023-11-01T00:40:13.362Z,78.42
2023-11-01T00:55:14.177Z,78.38
2023-11-01T01:10:14.881Z,79.19
2023-11-01T01:25:15.651Z,79.10
2023-11-01T01:40:16.515Z,78.41
2023-11-01T01:55:16.765Z,78.41
2023-11-01T02:10:17.538Z,78.30
2023-11-01T02:25:18.290Z,77.36
2023-11-01T02:40:19.067Z,78.08
2023-11-01T02:55:19.810Z,78.26
2023-11-01T03:10:20.673Z,75.73
2023-11-01T03:25:20.928Z,77.77
2023-11-01T03:40:21.703Z,80.16
2023-11-01T03:55:22.470Z,79.94
2023-11-01T04:10:23.220Z,78.94
2023-11-01T04:25:24.009Z,80.65
2023-11-01T04:40:24.859Z,79.79
2023-11-01T04:55:25.079Z,79.98
2023-11-01T05:10:25.824Z,79.86
2023-11-01T05:25:29.184Z,80.12
2023-11-01T05:40:27.225Z,81.40
2023-11-01T06:10:28.264Z,82.67
2023-11-01T06:25:29.005Z,83.90
2023-11-01T06:40:29.731Z,83.92
2023-11-01T06:55:30.553Z,83.78
2023-11-01T07:10:31.261Z,84.56
2023-11-01T07:25:32.027Z,83.17
2023-11-01T07:40:32.784Z,80.84
2023-11-01T07:55:33.447Z,77.96
2023-11-01T08:10:34.163Z,74.67
2023-11-01T08:25:35.980Z,74.09
2023-11-01T08:40:35.869Z,72.10
2023-11-01T08:55:36.984Z,69.22
2023-11-01T09:10:37.077Z,68.80
2023-11-01T09:25:37.713Z,66.79
2023-11-01T09:40:38.364Z,62.19
2023-11-01T09:55:39.006Z,58.46
2023-11-01T10:10:39.626Z,55.23
2023-11-01T10:25:40.257Z,52.95
2023-11-01T10:40:40.787Z,50.87
2023-11-01T10:55:41.261Z,48.84
2023-11-01T11:10:41.701Z,47.60
2023-11-01T11:25:42.186Z,48.78
2023-11-01T11:40:42.722Z,50.01
2023-11-01T11:55:43.083Z,49.95
2023-11-01T12:10:43.599Z,49.58
2023-11-01T12:25:44.122Z,49.43
2023-11-01T12:40:44.682Z,48.30
2023-11-01T12:55:45.087Z,49.85
2023-11-01T13:10:45.558Z,47.23
2023-11-01T13:25:46.080Z,49.70
2023-11-01T13:40:46.611Z,49.84
2023-11-01T13:55:49.775Z,50.19
2023-11-01T14:10:47.947Z,50.78
2023-11-01T14:25:48.503Z,52.83
2023-11-01T14:40:49.141Z,58.79
2023-11-01T14:55:49.652Z,63.52
2023-11-01T15:10:50.111Z,64.95
2023-11-01T15:25:50.606Z,68.25
2023-11-01T15:40:51.214Z,69.73
2023-11-01T15:55:51.660Z,71.44
2023-11-01T16:10:52.317Z,73.00
2023-11-01T16:25:55.073Z,74.42
2023-11-01T16:40:53.739Z,75.79
2023-11-01T16:55:54.365Z,77.32
2023-11-01T17:10:55.017Z,78.41
2023-11-01T17:25:55.799Z,78.80
2023-11-01T17:40:56.478Z,79.52
2023-11-01T17:55:57.142Z,80.56
2023-11-01T18:10:57.803Z,80.22
2023-11-01T18:25:58.486Z,81.01
2023-11-01T18:40:59.150Z,81.50
2023-11-01T18:55:59.884Z,81.23
2023-11-01T19:11:00.602Z,81.98
2023-11-01T19:26:01.358Z,81.68
2023-11-01T19:41:02.064Z,82.09
2023-11-01T19:56:02.802Z,81.72
2023-11-01T20:11:03.499Z,81.80
2023-11-01T20:26:04.392Z,82.24
2023-11-01T20:41:04.578Z,82.46
2023-11-01T20:56:05.349Z,82.35
2023-11-01T21:11:06.106Z,82.53
2023-11-01T21:26:06.844Z,81.76
2023-11-01T21:41:07.652Z,80.46
2023-11-01T21:56:07.855Z,81.17
2023-11-01T22:11:08.699Z,82.84
2023-11-01T22:26:08.905Z,82.07
2023-11-01T22:41:09.682Z,82.20
2023-11-01T22:56:10.627Z,81.51
2023-11-01T23:11:10.900Z,80.56
2023-11-01T23:26:11.686Z,82.23
2023-11-01T23:41:12.471Z,81.95
2023-11-01T23:56:13.224Z,81.92
